sensor_id;sensor_type;location;lat;lon;timestamp;pressure;altitude;pressure_sealevel;temperature;humidity
7157;BME280;3620;49.862;8.758;2022-10-16T00:00:35;98967.25;;;18.49;100.00
7157;BME280;3620;49.862;8.758;2022-10-16T00:03:02;98981.56;;;18.37;100.00
7157;BME280;3620;49.862;8.758;2022-10-16T00:05:29;98980.38;;;18.19;100.00
7157;BME280;3620;49.862;8.758;2022-10-16T00:07:56;98975.41;;;18.14;100.00
7157;BME280;3620;49.862;8.758;2022-10-16T00:10:23;98960.00;;;18.29;100.00
7157;BME280;3620;49.862;8.758;2022-10-16T00:12:49;98957.81;;;18.34;100.00
7157;BME280;3620;49.862;8.758;2022-10-16T00:15:17;98968.00;;;18.29;100.00
7157;BME280;3620;49.862;8.758;2022-10-16T00:17:44;98964.72;;;18.37;100.00
7157;BME280;3620;49.862;8.758;2022-10-16T00:20:11;98974.44;;;18.26;100.00
7157;BME280;3620;49.862;8.758;2022-10-16T00:22:37;98986.19;;;18.24;100.00
7157;BME280;3620;49.862;8.758;2022-10-16T00:25:05;98985.06;;;18.38;100.00
7157;BME280;3620;49.862;8.758;2022-10-16T00:27:32;98980.56;;;18.38;100.00
7157;BME280;3620;49.862;8.758;2022-10-16T00:29:59;98985.53;;;18.31;100.00
7157;BME280;3620;49.862;8.758;2022-10-16T00:32:27;98973.81;;;18.45;100.00
7157;BME280;3620;49.862;8.758;2022-10-16T00:34:54;98968.25;;;18.48;100.00
7157;BME280;3620;49.862;8.758;2022-10-16T00:37:21;98983.22;;;18.38;100.00
7157;BME280;3620;49.862;8.758;2022-10-16T00:39:48;98989.53;;;18.59;100.00
7157;BME280;3620;49.862;8.758;2022-10-16T00:42:15;98984.66;;;18.64;100.00
7157;BME280;3620;49.862;8.758;2022-10-16T00:44:46;98982.03;;;18.53;100.00
7157;BME280;3620;49.862;8.758;2022-10-16T00:47:18;98983.19;;;18.60;100.00
7157;BME280;3620;49.862;8.758;2022-10-16T00:49:48;98975.44;;;18.68;100.00
7157;BME280;3620;49.862;8.758;2022-10-16T00:52:17;98983.19;;;18.60;100.00
7157;BME280;3620;49.862;8.758;2022-10-16T00:54:46;98981.28;;;18.51;100.00
7157;BME280;3620;49.862;8.758;2022-10-16T00:57:13;98987.38;;;18.53;100.00
7157;BME280;3620;49.862;8.758;2022-10-16T00:59:41;98994.88;;;18.37;100.00
7157;BME280;3620;49.862;8.758;2022-10-16T01:02:10;98992.31;;;18.47;100.00
7157;BME280;3620;49.862;8.758;2022-10-16T01:04:39;98994.38;;;18.32;100.00
7157;BME280;3620;49.862;8.758;2022-10-16T01:07:12;98998.00;;;18.31;100.00
7157;BME280;3620;49.862;8.758;2022-10-16T01:09:50;98995.84;;;18.25;100.00
7157;BME280;3620;49.862;8.758;2022-10-16T01:12:23;98993.44;;;18.22;100.00
7157;BME280;3620;49.862;8.758;2022-10-16T01:14:58;99005.78;;;18.12;100.00
7157;BME280;3620;49.862;8.758;2022-10-16T01:17:30;98994.41;;;18.21;100.00
7157;BME280;3620;49.862;8.758;2022-10-16T01:20:09;98991.63;;;18.11;100.00
7157;BME280;3620;49.862;8.758;2022-10-16T01:22:47;98995.34;;;18.20;100.00
7157;BME280;3620;49.862;8.758;2022-10-16T01:25:20;98991.50;;;18.24;100.00
7157;BME280;3620;49.862;8.758;2022-10-16T01:27:51;98996.09;;;18.33;100.00
7157;BME280;3620;49.862;8.758;2022-10-16T01:30:23;98989.56;;;18.26;100.00
7157;BME280;3620;49.862;8.758;2022-10-16T01:32:55;99004.69;;;18.14;100.00
7157;BME280;3620;49.862;8.758;2022-10-16T01:35:27;99003.97;;;18.12;100.00
7157;BME280;3620;49.862;8.758;2022-10-16T01:37:59;99003.34;;;18.20;100.00
7157;BME280;3620;49.862;8.758;2022-10-16T01:40:29;99010.38;;;18.21;100.00
7157;BME280;3620;49.862;8.758;2022-10-16T01:43:03;98997.28;;;18.29;100.00
7157;BME280;3620;49.862;8.758;2022-10-16T01:45:32;99008.44;;;18.23;100.00
7157;BME280;3620;49.862;8.758;2022-10-16T01:48:01;99009.16;;;18.25;100.00
7157;BME280;3620;49.862;8.758;2022-10-16T01:50:31;99004.09;;;18.22;100.00
7157;BME280;3620;49.862;8.758;2022-10-16T01:52:59;99014.88;;;18.09;100.00
7157;BME280;3620;49.862;8.758;2022-10-16T01:55:29;99015.13;;;18.06;100.00
7157;BME280;3620;49.862;8.758;2022-10-16T01:58:01;99027.22;;;18.10;100.00
7157;BME280;3620;49.862;8.758;2022-10-16T02:00:30;99033.13;;;18.14;100.00
7157;BME280;3620;49.862;8.758;2022-10-16T02:02:59;99038.22;;;18.28;100.00
7157;BME280;3620;49.862;8.758;2022-10-16T02:05:32;99038.72;;;18.33;100.00
7157;BME280;3620;49.862;8.758;2022-10-16T02:08:00;99024.75;;;18.41;100.00
7157;BME280;3620;49.862;8.758;2022-10-16T02:10:27;99033.84;;;18.27;100.00
7157;BME280;3620;49.862;8.758;2022-10-16T02:12:59;99033.38;;;18.33;100.00
7157;BME280;3620;49.862;8.758;2022-10-16T02:15:28;99025.63;;;18.41;100.00
7157;BME280;3620;49.862;8.758;2022-10-16T02:17:55;99031.19;;;18.16;100.00
7157;BME280;3620;49.862;8.758;2022-10-16T02:20:25;99023.69;;;18.21;100.00
7157;BME280;3620;49.862;8.758;2022-10-16T02:22:54;99012.56;;;18.16;100.00
7157;BME280;3620;49.862;8.758;2022-10-16T02:25:25;99022.50;;;18.14;100.00
7157;BME280;3620;49.862;8.758;2022-10-16T02:27:56;99017.66;;;18.19;100.00
7157;BME280;3620;49.862;8.758;2022-10-16T02:30:29;99016.19;;;18.26;100.00
7157;BME280;3620;49.862;8.758;2022-10-16T02:33:00;99015.94;;;18.29;100.00
7157;BME280;3620;49.862;8.758;2022-10-16T02:35:29;99009.50;;;18.43;100.00
7157;BME280;3620;49.862;8.758;2022-10-16T02:37:57;99008.69;;;18.53;100.00
7157;BME280;3620;49.862;8.758;2022-10-16T02:40:25;99017.13;;;18.58;100.00
7157;BME280;3620;49.862;8.758;2022-10-16T02:42:54;99018.94;;;18.69;100.00
7157;BME280;3620;49.862;8.758;2022-10-16T02:45:23;99016.75;;;18.63;100.00
7157;BME280;3620;49.862;8.758;2022-10-16T02:47:52;99014.09;;;18.63;100.00
7157;BME280;3620;49.862;8.758;2022-10-16T02:50:18;99026.09;;;18.57;100.00
7157;BME280;3620;49.862;8.758;2022-10-16T02:52:45;99027.78;;;18.58;100.00
7157;BME280;3620;49.862;8.758;2022-10-16T02:55:11;99029.50;;;18.59;100.00
7157;BME280;3620;49.862;8.758;2022-10-16T02:57:38;99031.44;;;18.57;100.00
7157;BME280;3620;49.862;8.758;2022-10-16T03:00:07;99033.03;;;18.49;100.00
7157;BME280;3620;49.862;8.758;2022-10-16T03:02:34;99032.25;;;18.58;100.00
7157;BME280;3620;49.862;8.758;2022-10-16T03:05:03;99032.25;;;18.58;100.00
7157;BME280;3620;49.862;8.758;2022-10-16T03:07:29;99028.13;;;18.65;100.00
7157;BME280;3620;49.862;8.758;2022-10-16T03:09:56;99039.63;;;18.65;100.00
7157;BME280;3620;49.862;8.758;2022-10-16T03:12:25;99036.50;;;18.60;100.00
7157;BME280;3620;49.862;8.758;2022-10-16T03:14:52;99046.69;;;18.66;100.00
7157;BME280;3620;49.862;8.758;2022-10-16T03:17:18;99046.22;;;18.50;100.00
7157;BME280;3620;49.862;8.758;2022-10-16T03:19:45;99046.53;;;18.68;100.00
7157;BME280;3620;49.862;8.758;2022-10-16T03:22:13;99046.41;;;18.69;100.00
7157;BME280;3620;49.862;8.758;2022-10-16T03:24:40;99045.94;;;18.75;100.00
7157;BME280;3620;49.862;8.758;2022-10-16T03:27:07;99052.56;;;18.81;100.00
7157;BME280;3620;49.862;8.758;2022-10-16T03:29:33;99044.47;;;18.71;100.00
7157;BME280;3620;49.862;8.758;2022-10-16T03:32:02;99045.94;;;18.75;100.00
7157;BME280;3620;49.862;8.758;2022-10-16T03:34:29;99050.75;;;18.81;100.00
7157;BME280;3620;49.862;8.758;2022-10-16T03:36:56;99041.28;;;18.88;100.00
7157;BME280;3620;49.862;8.758;2022-10-16T03:39:24;99046.34;;;18.91;100.00
7157;BME280;3620;49.862;8.758;2022-10-16T03:41:50;99043.22;;;18.86;100.00
7157;BME280;3620;49.862;8.758;2022-10-16T03:44:17;99047.94;;;18.83;100.00
7157;BME280;3620;49.862;8.758;2022-10-16T03:46:44;99051.69;;;18.91;100.00
7157;BME280;3620;49.862;8.758;2022-10-16T03:49:10;99048.06;;;18.92;100.00
7157;BME280;3620;49.862;8.758;2022-10-16T03:51:37;99054.81;;;18.96;100.00
7157;BME280;3620;49.862;8.758;2022-10-16T03:54:04;99064.03;;;18.92;100.00
7157;BME280;3620;49.862;8.758;2022-10-16T03:56:32;99065.28;;;18.88;100.00
7157;BME280;3620;49.862;8.758;2022-10-16T03:58:58;99064.63;;;18.96;100.00
7157;BME280;3620;49.862;8.758;2022-10-16T04:01:25;99058.06;;;19.00;100.00
7157;BME280;3620;49.862;8.758;2022-10-16T04:03:52;99061.50;;;18.91;100.00
7157;BME280;3620;49.862;8.758;2022-10-16T04:06:18;99058.44;;;18.95;100.00
7157;BME280;3620;49.862;8.758;2022-10-16T04:08:45;99072.34;;;18.34;100.00
7157;BME280;3620;49.862;8.758;2022-10-16T04:11:12;99082.25;;;17.88;100.00
7157;BME280;3620;49.862;8.758;2022-10-16T04:13:40;99074.97;;;17.79;100.00
7157;BME280;3620;49.862;8.758;2022-10-16T04:16:06;99065.66;;;17.73;100.00
7157;BME280;3620;49.862;8.758;2022-10-16T04:18:33;99064.09;;;17.82;100.00
7157;BME280;3620;49.862;8.758;2022-10-16T04:21:02;99072.56;;;17.87;100.00
7157;BME280;3620;49.862;8.758;2022-10-16T04:23:29;99069.91;;;17.87;100.00
7157;BME280;3620;49.862;8.758;2022-10-16T04:25:56;99067.88;;;17.90;100.00
7157;BME280;3620;49.862;8.758;2022-10-16T04:28:22;99072.53;;;17.65;100.00
7157;BME280;3620;49.862;8.758;2022-10-16T04:30:50;99073.91;;;17.46;100.00
7157;BME280;3620;49.862;8.758;2022-10-16T04:33:17;99075.34;;;17.39;100.00
7157;BME280;3620;49.862;8.758;2022-10-16T04:35:44;99082.84;;;17.45;100.00
7157;BME280;3620;49.862;8.758;2022-10-16T04:38:10;99073.66;;;17.49;100.00
7157;BME280;3620;49.862;8.758;2022-10-16T04:40:37;99074.22;;;17.66;100.00
7157;BME280;3620;49.862;8.758;2022-10-16T04:43:04;99071.09;;;17.72;100.00
7157;BME280;3620;49.862;8.758;2022-10-16T04:45:31;99070.38;;;17.70;100.00
7157;BME280;3620;49.862;8.758;2022-10-16T04:47:59;99073.75;;;17.72;100.00
7157;BME280;3620;49.862;8.758;2022-10-16T04:50:26;99089.13;;;17.68;100.00
7157;BME280;3620;49.862;8.758;2022-10-16T04:52:53;99079.66;;;17.53;100.00
7157;BME280;3620;49.862;8.758;2022-10-16T04:55:19;99076.69;;;17.80;100.00
7157;BME280;3620;49.862;8.758;2022-10-16T04:57:46;99069.44;;;18.04;100.00
7157;BME280;3620;49.862;8.758;2022-10-16T05:00:13;99073.78;;;18.16;100.00
7157;BME280;3620;49.862;8.758;2022-10-16T05:02:40;99085.13;;;17.85;100.00
7157;BME280;3620;49.862;8.758;2022-10-16T05:05:08;99082.22;;;17.66;100.00
7157;BME280;3620;49.862;8.758;2022-10-16T05:07:35;99086.91;;;17.51;100.00
7157;BME280;3620;49.862;8.758;2022-10-16T05:10:02;99076.50;;;17.59;100.00
7157;BME280;3620;49.862;8.758;2022-10-16T05:12:28;99076.41;;;17.72;100.00
7157;BME280;3620;49.862;8.758;2022-10-16T05:14:55;99076.69;;;17.80;100.00
7157;BME280;3620;49.862;8.758;2022-10-16T05:17:23;99074.72;;;17.71;100.00
7157;BME280;3620;49.862;8.758;2022-10-16T05:19:51;99070.13;;;17.73;100.00
7157;BME280;3620;49.862;8.758;2022-10-16T05:22:19;99078.38;;;17.81;100.00
7157;BME280;3620;49.862;8.758;2022-10-16T05:24:45;99087.06;;;17.72;100.00
7157;BME280;3620;49.862;8.758;2022-10-16T05:27:12;99077.88;;;17.76;100.00
7157;BME280;3620;49.862;8.758;2022-10-16T05:29:44;99075.72;;;18.03;100.00
7157;BME280;3620;49.862;8.758;2022-10-16T05:32:11;99077.91;;;18.20;100.00
7157;BME280;3620;49.862;8.758;2022-10-16T05:34:38;99078.41;;;18.25;100.00
7157;BME280;3620;49.862;8.758;2022-10-16T05:37:05;99079.56;;;17.77;100.00
7157;BME280;3620;49.862;8.758;2022-10-16T05:39:33;99081.63;;;17.73;100.00
7157;BME280;3620;49.862;8.758;2022-10-16T05:42:00;99085.38;;;17.71;100.00
7157;BME280;3620;49.862;8.758;2022-10-16T05:44:26;99090.69;;;17.71;100.00
7157;BME280;3620;49.862;8.758;2022-10-16T05:46:53;99091.66;;;17.70;100.00
7157;BME280;3620;49.862;8.758;2022-10-16T05:49:20;99095.81;;;17.50;100.00
7157;BME280;3620;49.862;8.758;2022-10-16T05:51:46;99097.66;;;17.61;100.00
7157;BME280;3620;49.862;8.758;2022-10-16T05:54:13;99097.53;;;17.51;100.00
7157;BME280;3620;49.862;8.758;2022-10-16T05:56:42;99100.50;;;17.46;100.00
7157;BME280;3620;49.862;8.758;2022-10-16T05:59:08;99104.13;;;17.45;100.00
7157;BME280;3620;49.862;8.758;2022-10-16T06:01:35;99108.31;;;17.61;100.00
7157;BME280;3620;49.862;8.758;2022-10-16T06:04:02;99115.63;;;17.81;100.00
7157;BME280;3620;49.862;8.758;2022-10-16T06:06:29;99127.28;;;17.91;100.00
7157;BME280;3620;49.862;8.758;2022-10-16T06:08:56;99137.22;;;18.00;100.00
7157;BME280;3620;49.862;8.758;2022-10-16T06:11:26;99125.03;;;17.74;100.00
7157;BME280;3620;49.862;8.758;2022-10-16T06:13:56;99135.16;;;17.58;100.00
7157;BME280;3620;49.862;8.758;2022-10-16T06:16:24;99128.91;;;17.46;100.00
7157;BME280;3620;49.862;8.758;2022-10-16T06:18:51;99130.34;;;17.39;100.00
7157;BME280;3620;49.862;8.758;2022-10-16T06:21:20;99138.19;;;17.40;100.00
7157;BME280;3620;49.862;8.758;2022-10-16T06:23:50;99138.31;;;17.39;100.00
7157;BME280;3620;49.862;8.758;2022-10-16T06:26:18;99131.81;;;17.19;100.00
7157;BME280;3620;49.862;8.758;2022-10-16T06:28:46;99130.63;;;17.23;100.00
7157;BME280;3620;49.862;8.758;2022-10-16T06:31:14;99135.25;;;17.32;100.00
7157;BME280;3620;49.862;8.758;2022-10-16T06:33:42;99136.22;;;17.31;100.00
7157;BME280;3620;49.862;8.758;2022-10-16T06:36:11;99137.06;;;17.55;100.00
7157;BME280;3620;49.862;8.758;2022-10-16T06:38:38;99138.63;;;17.82;100.00
7157;BME280;3620;49.862;8.758;2022-10-16T06:41:06;99136.59;;;17.96;100.00
7157;BME280;3620;49.862;8.758;2022-10-16T06:43:33;99148.59;;;17.43;100.00
7157;BME280;3620;49.862;8.758;2022-10-16T06:46:01;99141.81;;;17.39;100.00
7157;BME280;3620;49.862;8.758;2022-10-16T06:48:29;99144.34;;;17.41;100.00
7157;BME280;3620;49.862;8.758;2022-10-16T06:50:58;99146.34;;;17.26;100.00
7157;BME280;3620;49.862;8.758;2022-10-16T06:53:25;99150.19;;;17.22;100.00
7157;BME280;3620;49.862;8.758;2022-10-16T06:55:52;99151.00;;;17.35;100.00
7157;BME280;3620;49.862;8.758;2022-10-16T06:58:19;99156.19;;;17.37;100.00
7157;BME280;3620;49.862;8.758;2022-10-16T07:00:46;99164.53;;;17.56;100.00
7157;BME280;3620;49.862;8.758;2022-10-16T07:03:13;99177.94;;;17.54;100.00
7157;BME280;3620;49.862;8.758;2022-10-16T07:05:41;99171.25;;;17.73;100.00
7157;BME280;3620;49.862;8.758;2022-10-16T07:08:08;99168.31;;;17.99;100.00
7157;BME280;3620;49.862;8.758;2022-10-16T07:10:35;99162.38;;;18.18;100.00
7157;BME280;3620;49.862;8.758;2022-10-16T07:13:02;99164.34;;;18.38;100.00
7157;BME280;3620;49.862;8.758;2022-10-16T07:15:29;99169.91;;;18.13;100.00
7157;BME280;3620;49.862;8.758;2022-10-16T07:17:56;99177.19;;;18.22;100.00
7157;BME280;3620;49.862;8.758;2022-10-16T07:20:22;99175.47;;;18.21;100.00
7157;BME280;3620;49.862;8.758;2022-10-16T07:22:50;99189.88;;;18.18;100.00
7157;BME280;3620;49.862;8.758;2022-10-16T07:25:17;99187.81;;;18.11;100.00
7157;BME280;3620;49.862;8.758;2022-10-16T07:27:44;99197.88;;;18.29;100.00
7157;BME280;3620;49.862;8.758;2022-10-16T07:30:11;99197.03;;;18.29;100.00
7157;BME280;3620;49.862;8.758;2022-10-16T07:32:37;99207.69;;;18.29;100.00
7157;BME280;3620;49.862;8.758;2022-10-16T07:35:05;99207.69;;;18.29;100.00
7157;BME280;3620;49.862;8.758;2022-10-16T07:37:32;99209.16;;;18.33;100.00
7157;BME280;3620;49.862;8.758;2022-10-16T07:40:00;99225.09;;;18.68;100.00
7157;BME280;3620;49.862;8.758;2022-10-16T07:42:27;99208.50;;;18.86;100.00
7157;BME280;3620;49.862;8.758;2022-10-16T07:44:54;99214.28;;;19.02;100.00
7157;BME280;3620;49.862;8.758;2022-10-16T07:47:20;99222.41;;;19.12;100.00
7157;BME280;3620;49.862;8.758;2022-10-16T07:49:47;99226.88;;;19.23;100.00
7157;BME280;3620;49.862;8.758;2022-10-16T07:52:13;99227.84;;;19.22;100.00
7157;BME280;3620;49.862;8.758;2022-10-16T07:54:40;99224.69;;;19.28;100.00
7157;BME280;3620;49.862;8.758;2022-10-16T07:57:08;99227.59;;;19.36;100.00
7157;BME280;3620;49.862;8.758;2022-10-16T07:59:35;99230.25;;;19.36;100.00
7157;BME280;3620;49.862;8.758;2022-10-16T08:02:01;99228.81;;;19.43;100.00
7157;BME280;3620;49.862;8.758;2022-10-16T08:04:28;99232.19;;;19.45;100.00
7157;BME280;3620;49.862;8.758;2022-10-16T08:06:55;99228.91;;;19.52;100.00
7157;BME280;3620;49.862;8.758;2022-10-16T08:09:22;99222.69;;;19.63;100.00
7157;BME280;3620;49.862;8.758;2022-10-16T08:11:48;99227.06;;;19.64;100.00
7157;BME280;3620;49.862;8.758;2022-10-16T08:14:16;99239.75;;;19.71;100.00
7157;BME280;3620;49.862;8.758;2022-10-16T08:16:43;99241.56;;;19.82;100.00
7157;BME280;3620;49.862;8.758;2022-10-16T08:19:10;99253.25;;;20.02;100.00
7157;BME280;3620;49.862;8.758;2022-10-16T08:21:36;99255.97;;;20.11;100.00
7157;BME280;3620;49.862;8.758;2022-10-16T08:24:03;99254.75;;;20.15;100.00
7157;BME280;3620;49.862;8.758;2022-10-16T08:26:30;99254.28;;;20.21;100.00
7157;BME280;3620;49.862;8.758;2022-10-16T08:28:56;99259.63;;;20.21;100.00
7157;BME280;3620;49.862;8.758;2022-10-16T08:31:24;99260.09;;;20.15;100.00
7157;BME280;3620;49.862;8.758;2022-10-16T08:33:52;99267.38;;;20.13;100.00
7157;BME280;3620;49.862;8.758;2022-10-16T08:36:19;99280.78;;;20.02;100.00
7157;BME280;3620;49.862;8.758;2022-10-16T08:38:47;99288.59;;;19.94;100.00
7157;BME280;3620;49.862;8.758;2022-10-16T08:41:23;99306.81;;;19.89;100.00
7157;BME280;3620;49.862;8.758;2022-10-16T08:44:12;99320.09;;;19.68;100.00
7157;BME280;3620;49.862;8.758;2022-10-16T08:46:49;99327.75;;;19.62;100.00
7157;BME280;3620;49.862;8.758;2022-10-16T08:49:19;99333.34;;;19.48;100.00
7157;BME280;3620;49.862;8.758;2022-10-16T08:51:46;99325.19;;;19.27;100.00
7157;BME280;3620;49.862;8.758;2022-10-16T08:54:22;99317.56;;;19.23;100.00
7157;BME280;3620;49.862;8.758;2022-10-16T08:56:54;99319.75;;;19.18;100.00
7157;BME280;3620;49.862;8.758;2022-10-16T08:59:22;99318.03;;;18.94;100.00
7157;BME280;3620;49.862;8.758;2022-10-16T09:01:52;99317.03;;;18.84;100.00
7157;BME280;3620;49.862;8.758;2022-10-16T09:04:48;99321.31;;;18.98;100.00
7157;BME280;3620;49.862;8.758;2022-10-16T09:07:26;99326.06;;;19.06;100.00
7157;BME280;3620;49.862;8.758;2022-10-16T09:10:11;99337.69;;;19.16;100.00
7157;BME280;3620;49.862;8.758;2022-10-16T09:12:48;99337.69;;;19.16;100.00
7157;BME280;3620;49.862;8.758;2022-10-16T09:15:27;99331.84;;;18.88;100.00
7157;BME280;3620;49.862;8.758;2022-10-16T09:18:01;99337.94;;;19.13;100.00
7157;BME280;3620;49.862;8.758;2022-10-16T09:20:42;99348.59;;;19.13;100.00
7157;BME280;3620;49.862;8.758;2022-10-16T09:23:16;99348.88;;;19.43;100.00
7157;BME280;3620;49.862;8.758;2022-10-16T09:25:46;99346.53;;;19.71;100.00
7157;BME280;3620;49.862;8.758;2022-10-16T09:28:14;99365.00;;;19.63;100.00
7157;BME280;3620;49.862;8.758;2022-10-16T09:30:41;99369.72;;;19.82;100.00
7157;BME280;3620;49.862;8.758;2022-10-16T09:33:11;99369.91;;;20.01;100.00
7157;BME280;3620;49.862;8.758;2022-10-16T09:35:40;99373.13;;;20.16;100.00
7157;BME280;3620;49.862;8.758;2022-10-16T09:38:08;99361.84;;;20.23;100.00
7157;BME280;3620;49.862;8.758;2022-10-16T09:40:37;99358.75;;;20.39;100.00
7157;BME280;3620;49.862;8.758;2022-10-16T09:43:17;99362.81;;;20.54;100.00
7157;BME280;3620;49.862;8.758;2022-10-16T09:45:54;99366.09;;;20.78;100.00
7157;BME280;3620;49.862;8.758;2022-10-16T09:48:23;99363.66;;;20.96;100.00
7157;BME280;3620;49.862;8.758;2022-10-16T09:50:59;99365.31;;;21.08;100.00
7157;BME280;3620;49.862;8.758;2022-10-16T09:53:38;99367.50;;;21.44;100.00
7157;BME280;3620;49.862;8.758;2022-10-16T09:56:05;99379.78;;;21.56;100.00
7157;BME280;3620;49.862;8.758;2022-10-16T09:58:33;99379.78;;;21.56;100.00
7157;BME280;3620;49.862;8.758;2022-10-16T10:01:00;99378.91;;;21.46;100.00
7157;BME280;3620;49.862;8.758;2022-10-16T10:03:37;99378.88;;;20.95;100.00
7157;BME280;3620;49.862;8.758;2022-10-16T10:06:15;99370.31;;;20.81;100.00
7157;BME280;3620;49.862;8.758;2022-10-16T10:09:00;99377.38;;;20.82;100.00
7157;BME280;3620;49.862;8.758;2022-10-16T10:11:49;99382.41;;;20.75;100.00
7157;BME280;3620;49.862;8.758;2022-10-16T10:14:34;99382.91;;;20.69;100.00
7157;BME280;3620;49.862;8.758;2022-10-16T10:17:10;99380.00;;;20.93;100.00
7157;BME280;3620;49.862;8.758;2022-10-16T10:19:40;99390.03;;;20.80;100.00
7157;BME280;3620;49.862;8.758;2022-10-16T10:22:22;99386.72;;;21.08;100.00
7157;BME280;3620;49.862;8.758;2022-10-16T10:25:22;99386.88;;;21.37;100.00
7157;BME280;3620;49.862;8.758;2022-10-16T10:30:57;99390.13;;;21.40;100.00
7157;BME280;3620;49.862;8.758;2022-10-16T10:33:33;99392.84;;;21.50;100.00
7157;BME280;3620;49.862;8.758;2022-10-16T10:36:16;99389.88;;;21.43;100.00
7157;BME280;3620;49.862;8.758;2022-10-16T10:38:50;99393.84;;;21.49;100.00
7157;BME280;3620;49.862;8.758;2022-10-16T10:44:16;99387.56;;;20.88;100.00
7157;BME280;3620;49.862;8.758;2022-10-16T10:46:50;99382.59;;;20.83;100.00
7157;BME280;3620;49.862;8.758;2022-10-16T10:49:33;99383.63;;;20.92;100.00
7157;BME280;3620;49.862;8.758;2022-10-16T10:52:16;99376.03;;;20.56;100.00
7157;BME280;3620;49.862;8.758;2022-10-16T10:54:49;99380.94;;;20.71;100.00
7157;BME280;3620;49.862;8.758;2022-10-16T10:57:27;99378.28;;;20.51;100.00
7157;BME280;3620;49.862;8.758;2022-10-16T11:00:03;99376.19;;;20.75;100.00
7157;BME280;3620;49.862;8.758;2022-10-16T11:02:37;99376.72;;;20.69;100.00
7157;BME280;3620;49.862;8.758;2022-10-16T11:05:29;99371.22;;;20.50;100.00
7157;BME280;3620;49.862;8.758;2022-10-16T11:08:00;99373.16;;;20.48;100.00
7157;BME280;3620;49.862;8.758;2022-10-16T11:10:32;99370.97;;;20.53;100.00
7157;BME280;3620;49.862;8.758;2022-10-16T11:13:14;99372.28;;;20.79;100.00
7157;BME280;3620;49.862;8.758;2022-10-16T11:15:47;99369.53;;;20.90;100.00
7157;BME280;3620;49.862;8.758;2022-10-16T11:18:19;99374.00;;;20.80;100.00
7157;BME280;3620;49.862;8.758;2022-10-16T11:20:51;99366.16;;;20.88;100.00
7157;BME280;3620;49.862;8.758;2022-10-16T11:23:25;99366.16;;;20.88;100.00
7157;BME280;3620;49.862;8.758;2022-10-16T11:25:54;99371.50;;;20.88;100.00
7157;BME280;3620;49.862;8.758;2022-10-16T11:28:26;99366.88;;;20.90;100.00
7157;BME280;3620;49.862;8.758;2022-10-16T11:31:00;99379.84;;;20.74;100.00
7157;BME280;3620;49.862;8.758;2022-10-16T11:33:32;99378.50;;;20.79;100.00
7157;BME280;3620;49.862;8.758;2022-10-16T11:36:06;99383.94;;;20.78;100.00
7157;BME280;3620;49.862;8.758;2022-10-16T11:38:41;99389.16;;;21.11;100.00
7157;BME280;3620;49.862;8.758;2022-10-16T11:41:18;99390.41;;;21.37;100.00
7157;BME280;3620;49.862;8.758;2022-10-16T11:43:52;99388.16;;;21.42;100.00
7157;BME280;3620;49.862;8.758;2022-10-16T11:46:24;99396.09;;;21.53;100.00
7157;BME280;3620;49.862;8.758;2022-10-16T11:48:57;99393.69;;;21.80;98.71
7157;BME280;3620;49.862;8.758;2022-10-16T11:51:32;99386.94;;;21.46;98.95
7157;BME280;3620;49.862;8.758;2022-10-16T11:54:08;99384.16;;;21.87;97.08
7157;BME280;3620;49.862;8.758;2022-10-16T11:56:42;99378.22;;;21.94;96.38
7157;BME280;3620;49.862;8.758;2022-10-16T11:59:16;99391.25;;;22.08;96.94
7157;BME280;3620;49.862;8.758;2022-10-16T12:01:48;99380.13;;;22.22;95.79
7157;BME280;3620;49.862;8.758;2022-10-16T12:04:22;99370.69;;;22.27;94.96
7157;BME280;3620;49.862;8.758;2022-10-16T12:06:57;99367.00;;;22.38;94.86
7157;BME280;3620;49.862;8.758;2022-10-16T12:09:29;99361.94;;;22.25;94.43
7157;BME280;3620;49.862;8.758;2022-10-16T12:11:57;99363.03;;;22.04;95.39
7157;BME280;3620;49.862;8.758;2022-10-16T12:14:37;99372.91;;;22.03;96.16
7157;BME280;3620;49.862;8.758;2022-10-16T12:17:23;99373.50;;;22.26;95.74
7157;BME280;3620;49.862;8.758;2022-10-16T12:19:57;99372.09;;;22.22;94.86
7157;BME280;3620;49.862;8.758;2022-10-16T12:22:27;99374.25;;;22.66;94.57
7157;BME280;3620;49.862;8.758;2022-10-16T12:24:57;99381.16;;;22.78;92.24
7157;BME280;3620;49.862;8.758;2022-10-16T12:27:29;99373.53;;;22.74;90.67
7157;BME280;3620;49.862;8.758;2022-10-16T12:29:57;99362.94;;;22.72;91.69
7157;BME280;3620;49.862;8.758;2022-10-16T12:32:29;99372.41;;;22.76;90.67
7157;BME280;3620;49.862;8.758;2022-10-16T12:34:57;99374.81;;;22.70;89.96
7157;BME280;3620;49.862;8.758;2022-10-16T12:37:29;99386.50;;;22.78;88.67
7157;BME280;3620;49.862;8.758;2022-10-16T12:39:59;99392.00;;;22.48;88.99
7157;BME280;3620;49.862;8.758;2022-10-16T12:42:37;99395.38;;;22.50;89.15
7157;BME280;3620;49.862;8.758;2022-10-16T12:45:24;99391.72;;;22.32;90.77
7157;BME280;3620;49.862;8.758;2022-10-16T12:47:53;99397.25;;;22.40;90.90
7157;BME280;3620;49.862;8.758;2022-10-16T12:50:27;99390.72;;;22.23;90.94
7157;BME280;3620;49.862;8.758;2022-10-16T12:52:56;99388.59;;;22.27;91.38
7157;BME280;3620;49.862;8.758;2022-10-16T12:55:24;99390.59;;;22.44;91.43
7157;BME280;3620;49.862;8.758;2022-10-16T12:58:27;99396.41;;;22.78;90.15
7157;BME280;3620;49.862;8.758;2022-10-16T13:01:07;99398.06;;;22.50;89.25
7157;BME280;3620;49.862;8.758;2022-10-16T13:04:05;99400.06;;;22.67;89.34
7157;BME280;3620;49.862;8.758;2022-10-16T13:06:43;99396.53;;;22.57;89.46
7157;BME280;3620;49.862;8.758;2022-10-16T13:09:22;99386.66;;;22.67;89.29
7157;BME280;3620;49.862;8.758;2022-10-16T13:12:05;99396.13;;;23.00;88.43
7157;BME280;3620;49.862;8.758;2022-10-16T13:15:04;99395.78;;;23.22;87.95
7157;BME280;3620;49.862;8.758;2022-10-16T13:17:39;99402.56;;;23.26;86.71
7157;BME280;3620;49.862;8.758;2022-10-16T13:20:16;99403.97;;;23.20;86.99
7157;BME280;3620;49.862;8.758;2022-10-16T13:22:51;99411.31;;;23.18;86.65
7157;BME280;3620;49.862;8.758;2022-10-16T13:25:31;99408.47;;;23.29;86.33
7157;BME280;3620;49.862;8.758;2022-10-16T13:28:04;99408.03;;;23.44;85.38
7157;BME280;3620;49.862;8.758;2022-10-16T13:30:35;99399.09;;;23.53;84.96
7157;BME280;3620;49.862;8.758;2022-10-16T13:33:11;99404.75;;;23.50;83.30
7157;BME280;3620;49.862;8.758;2022-10-16T13:35:47;99400.69;;;23.46;83.44